createdAt,value
2018-11-05T00:00:27.376Z,22.13
2018-11-05T00:00:58.973Z,22.12
2018-11-05T00:01:30.561Z,22.12
2018-11-05T00:02:02.193Z,22.11
2018-11-05T00:02:33.815Z,22.10
2018-11-05T00:03:05.402Z,22.10
2018-11-05T00:03:37.011Z,22.11
2018-11-05T00:04:08.589Z,22.11
2018-11-05T00:04:40.176Z,22.11
2018-11-05T00:05:11.786Z,22.11
2018-11-05T00:05:43.394Z,22.11
2018-11-05T00:06:14.985Z,22.11
2018-11-05T00:06:46.581Z,22.11
2018-11-05T00:07:18.199Z,22.11
2018-11-05T00:07:49.801Z,22.11
2018-11-05T00:08:21.388Z,22.11
2018-11-05T00:08:52.976Z,22.11
2018-11-05T00:09:24.566Z,22.10
2018-11-05T00:09:56.156Z,22.10
2018-11-05T00:10:27.745Z,22.09
2018-11-05T00:10:59.335Z,22.09
2018-11-05T00:11:30.934Z,22.09
2018-11-05T00:12:02.511Z,22.09
2018-11-05T00:12:34.124Z,22.09
2018-11-05T00:13:05.722Z,22.09
2018-11-05T00:13:37.298Z,22.09
2018-11-05T00:14:08.895Z,22.09
2018-11-05T00:14:40.484Z,22.08
2018-11-05T00:15:12.082Z,22.09
2018-11-05T00:15:43.691Z,22.08
2018-11-05T00:16:15.276Z,22.08
2018-11-05T00:16:46.868Z,22.09
2018-11-05T00:17:18.480Z,22.09
2018-11-05T00:17:50.064Z,22.09
2018-11-05T00:18:21.651Z,22.09
2018-11-05T00:18:53.229Z,22.09
2018-11-05T00:19:24.819Z,22.09
2018-11-05T00:19:56.426Z,22.08
2018-11-05T00:20:28.021Z,22.08
2018-11-05T00:20:59.615Z,22.09
2018-11-05T00:21:31.190Z,22.08
2018-11-05T00:22:02.766Z,22.07
2018-11-05T00:22:34.380Z,22.07
2018-11-05T00:23:05.983Z,22.06
2018-11-05T00:23:37.572Z,22.07
2018-11-05T00:24:09.170Z,22.07
2018-11-05T00:24:40.760Z,22.06
2018-11-05T00:25:12.350Z,22.06
2018-11-05T00:25:43.940Z,22.04
2018-11-05T00:26:15.533Z,22.06
2018-11-05T00:26:47.138Z,22.06
2018-11-05T00:27:18.746Z,22.06
2018-11-05T00:27:50.349Z,22.05
2018-11-05T00:28:21.941Z,22.04
2018-11-05T00:28:53.554Z,22.04
2018-11-05T00:29:25.149Z,22.05
2018-11-05T00:29:56.766Z,22.04
2018-11-05T00:30:28.377Z,22.04
2018-11-05T00:30:59.963Z,22.04
2018-11-05T00:31:31.574Z,22.03
2018-11-05T00:32:03.169Z,22.03
2018-11-05T00:32:34.766Z,22.04
2018-11-05T00:33:06.365Z,22.07
2018-11-05T00:33:37.970Z,22.08
2018-11-05T00:34:09.575Z,22.07
2018-11-05T00:34:41.174Z,22.09
2018-11-05T00:35:12.781Z,22.08
2018-11-05T00:35:44.938Z,22.08
2018-11-05T00:36:16.527Z,22.07
2018-11-05T00:36:48.130Z,22.08
2018-11-05T00:37:19.759Z,22.08
2018-11-05T00:37:51.351Z,22.07
2018-11-05T00:38:22.940Z,22.05
2018-11-05T00:38:54.537Z,22.06
2018-11-05T00:39:26.139Z,22.05
2018-11-05T00:39:57.746Z,22.04
2018-11-05T00:40:29.332Z,22.05
2018-11-05T00:41:00.928Z,22.03
2018-11-05T00:41:32.530Z,22.01
2018-11-05T00:42:04.149Z,22.01
2018-11-05T00:42:35.782Z,22.02
2018-11-05T00:43:07.386Z,22.02
2018-11-05T00:43:38.972Z,22.02
2018-11-05T00:44:10.564Z,22.00
2018-11-05T00:44:42.166Z,22.01
2018-11-05T00:45:13.760Z,22.00
2018-11-05T00:45:45.415Z,22.00
2018-11-05T00:46:16.979Z,21.99
2018-11-05T00:46:48.583Z,21.99
2018-11-05T00:47:20.203Z,21.99
2018-11-05T00:47:51.851Z,21.99
2018-11-05T00:48:23.459Z,21.99
2018-11-05T00:48:55.067Z,21.99
2018-11-05T00:49:26.664Z,21.98
2018-11-05T00:49:58.242Z,21.97
2018-11-05T00:50:29.829Z,21.98
2018-11-05T00:51:01.420Z,21.98
2018-11-05T00:51:33.008Z,21.98
2018-11-05T00:52:04.603Z,21.97
2018-11-05T00:52:36.225Z,21.96
2018-11-05T00:53:07.811Z,21.97
2018-11-05T00:53:39.400Z,21.97
2018-11-05T00:54:11.011Z,21.97
2018-11-05T00:54:42.617Z,21.96
2018-11-05T00:55:14.204Z,21.96
2018-11-05T00:55:45.804Z,21.96
2018-11-05T00:56:17.406Z,21.96
2018-11-05T00:56:48.996Z,21.97
2018-11-05T00:57:20.607Z,21.97
2018-11-05T00:57:52.192Z,21.97
2018-11-05T00:58:23.780Z,21.96
2018-11-05T00:58:55.372Z,21.97
2018-11-05T00:59:26.978Z,21.97
2018-11-05T00:59:58.583Z,21.99
2018-11-05T01:00:30.185Z,22.00
2018-11-05T01:01:01.792Z,22.00
2018-11-05T01:01:33.446Z,22.00
2018-11-05T01:02:05.025Z,22.00
2018-11-05T01:02:36.640Z,22.01
2018-11-05T01:03:08.231Z,22.00
2018-11-05T01:03:39.837Z,22.01
2018-11-05T01:04:11.442Z,22.02
2018-11-05T01:04:43.040Z,22.04
2018-11-05T01:05:15.680Z,22.04
2018-11-05T01:05:47.272Z,22.04
2018-11-05T01:06:18.892Z,22.04
2018-11-05T01:06:50.500Z,22.05
2018-11-05T01:07:22.115Z,22.04
2018-11-05T01:07:53.690Z,22.05
2018-11-05T01:08:25.277Z,22.05
2018-11-05T01:08:56.882Z,22.06
2018-11-05T01:09:28.490Z,22.07
2018-11-05T01:10:00.094Z,22.06
2018-11-05T01:10:31.690Z,22.06
2018-11-05T01:11:03.294Z,22.05
2018-11-05T01:11:34.898Z,22.05
2018-11-05T01:12:06.507Z,22.05
2018-11-05T01:12:38.124Z,22.06
2018-11-05T01:13:09.716Z,22.05
2018-11-05T01:13:41.304Z,22.06
2018-11-05T01:14:12.903Z,22.06
2018-11-05T01:14:44.482Z,22.05
2018-11-05T01:15:16.072Z,22.06
2018-11-05T01:15:47.674Z,22.04
2018-11-05T01:16:19.277Z,21.93
2018-11-05T01:16:50.886Z,22.01
2018-11-05T01:17:22.519Z,22.02
2018-11-05T01:17:54.126Z,22.01
2018-11-05T01:18:25.727Z,22.01
2018-11-05T01:18:57.312Z,22.00
2018-11-05T01:19:28.900Z,22.00
2018-11-05T01:20:00.487Z,22.00
2018-11-05T01:20:32.072Z,21.99
2018-11-05T01:21:03.671Z,21.98
2018-11-05T01:21:35.249Z,21.98
2018-11-05T01:22:06.849Z,21.99
2018-11-05T01:22:38.475Z,21.98
2018-11-05T01:23:10.081Z,21.98
2018-11-05T01:23:41.668Z,21.98
2018-11-05T01:24:13.248Z,21.98
2018-11-05T01:24:44.850Z,21.99
2018-11-05T01:25:16.454Z,21.98
2018-11-05T01:25:48.040Z,21.99
2018-11-05T01:26:19.632Z,22.00
2018-11-05T01:26:51.210Z,21.99
2018-11-05T01:27:22.823Z,21.99
2018-11-05T01:27:54.450Z,22.00
2018-11-05T01:28:26.039Z,21.97
2018-11-05T01:28:57.633Z,21.99
2018-11-05T01:29:29.225Z,21.99
2018-11-05T01:30:00.817Z,21.98
2018-11-05T01:30:32.408Z,21.96
2018-11-05T01:31:03.996Z,21.98
2018-11-05T01:31:35.598Z,21.99
2018-11-05T01:32:07.200Z,21.98
2018-11-05T01:32:38.830Z,21.98
2018-11-05T01:33:10.403Z,21.98
2018-11-05T01:33:42.007Z,21.97
2018-11-05T01:34:13.596Z,21.97
2018-11-05T01:34:45.175Z,21.97
2018-11-05T01:35:16.788Z,21.95
2018-11-05T01:35:48.390Z,21.96
2018-11-05T01:36:19.970Z,21.96
2018-11-05T01:36:51.570Z,21.95
2018-11-05T01:37:23.255Z,21.93
2018-11-05T01:37:54.814Z,21.96
2018-11-05T01:38:26.399Z,21.95
2018-11-05T01:38:57.988Z,21.97
2018-11-05T01:39:29.571Z,21.99
2018-11-05T01:40:01.160Z,22.00
2018-11-05T01:40:32.762Z,21.98
2018-11-05T01:41:04.347Z,22.02
2018-11-05T01:41:35.938Z,22.01
2018-11-05T01:42:07.541Z,22.02
2018-11-05T01:42:39.164Z,22.02
2018-11-05T01:43:10.756Z,22.02
2018-11-05T01:43:42.335Z,22.02
2018-11-05T01:44:13.930Z,22.02
2018-11-05T01:44:45.534Z,22.02
2018-11-05T01:45:17.123Z,22.00
2018-11-05T01:45:48.726Z,22.02
2018-11-05T01:46:20.324Z,22.03
2018-11-05T01:46:51.916Z,22.03
2018-11-05T01:47:23.498Z,22.03
2018-11-05T01:47:55.098Z,22.03
2018-11-05T01:48:26.683Z,22.03
2018-11-05T01:48:58.443Z,22.02
2018-11-05T01:49:30.046Z,22.02
2018-11-05T01:50:01.640Z,22.02
2018-11-05T01:50:33.245Z,22.03
2018-11-05T01:51:04.842Z,22.03
2018-11-05T01:51:36.431Z,22.02
2018-11-05T01:52:08.020Z,22.02
2018-11-05T01:52:39.608Z,22.03
2018-11-05T01:53:11.223Z,22.02
2018-11-05T01:53:42.808Z,22.01
2018-11-05T01:54:14.396Z,22.01
2018-11-05T01:54:45.984Z,21.99
2018-11-05T01:55:17.562Z,22.01
2018-11-05T01:55:49.152Z,21.99
2018-11-05T01:56:20.754Z,21.98
2018-11-05T01:56:52.353Z,21.96
2018-11-05T01:57:23.943Z,21.98
2018-11-05T01:57:55.532Z,21.97
2018-11-05T01:58:27.117Z,21.98
2018-11-05T01:58:58.713Z,22.00
2018-11-05T01:59:30.322Z,21.77
2018-11-05T02:00:01.920Z,21.98
2018-11-05T02:00:33.507Z,21.97
2018-11-05T02:01:05.101Z,21.97
2018-11-05T02:01:36.711Z,21.74
2018-11-05T02:02:08.290Z,21.94
2018-11-05T02:02:39.900Z,21.93
2018-11-05T02:03:11.519Z,21.92
2018-11-05T02:03:43.104Z,21.91
2018-11-05T02:04:14.706Z,21.90
2018-11-05T02:04:46.296Z,21.89
2018-11-05T02:05:17.879Z,21.88
2018-11-05T02:05:49.466Z,21.87
2018-11-05T02:06:21.078Z,21.86
2018-11-05T02:06:52.667Z,21.85
2018-11-05T02:07:24.255Z,21.85
2018-11-05T02:07:55.868Z,21.86
2018-11-05T02:08:27.459Z,21.87
2018-11-05T02:08:59.041Z,21.87
2018-11-05T02:09:30.633Z,21.87
2018-11-05T02:10:02.266Z,21.88
2018-11-05T02:10:33.851Z,21.88
2018-11-05T02:11:05.441Z,21.87
2018-11-05T02:11:37.036Z,21.86
2018-11-05T02:12:08.624Z,21.86
2018-11-05T02:12:40.217Z,21.84
2018-11-05T02:13:11.890Z,21.84
2018-11-05T02:13:43.466Z,21.82
2018-11-05T02:14:15.055Z,21.82
2018-11-05T02:14:46.657Z,21.80
2018-11-05T02:15:18.248Z,21.80
2018-11-05T02:15:49.851Z,21.80
2018-11-05T02:16:21.466Z,21.79
2018-11-05T02:16:53.067Z,21.79
2018-11-05T02:17:24.666Z,21.79
2018-11-05T02:17:56.270Z,21.78
2018-11-05T02:18:27.961Z,21.78
2018-11-05T02:18:59.556Z,21.77
2018-11-05T02:19:31.144Z,21.77
2018-11-05T02:20:02.735Z,21.77
2018-11-05T02:20:34.319Z,21.76
2018-11-05T02:21:05.908Z,21.75
2018-11-05T02:21:37.510Z,21.75
2018-11-05T02:22:09.114Z,21.75
2018-11-05T02:22:40.708Z,21.75
2018-11-05T02:23:12.314Z,21.74
2018-11-05T02:23:43.937Z,21.76
2018-11-05T02:24:15.517Z,21.78
2018-11-05T02:24:47.122Z,21.80
2018-11-05T02:25:18.712Z,21.82
2018-11-05T02:25:50.307Z,21.82
2018-11-05T02:26:21.887Z,21.84
2018-11-05T02:26:53.483Z,21.85
2018-11-05T02:27:25.142Z,21.85
2018-11-05T02:27:56.682Z,21.85
2018-11-05T02:28:28.286Z,21.85
2018-11-05T02:28:59.876Z,21.76
2018-11-05T02:29:31.463Z,21.86
2018-11-05T02:30:03.056Z,21.85
2018-11-05T02:30:34.651Z,21.84
2018-11-05T02:31:06.240Z,21.85
2018-11-05T02:31:37.813Z,21.83
2018-11-05T02:32:09.403Z,21.84
2018-11-05T02:32:40.994Z,21.84
2018-11-05T02:33:12.598Z,21.82
2018-11-05T02:33:44.215Z,21.81
2018-11-05T02:34:15.804Z,21.82
2018-11-05T02:34:47.398Z,21.81
2018-11-05T02:35:18.982Z,21.81
2018-11-05T02:35:50.582Z,21.81
2018-11-05T02:36:22.176Z,21.80
2018-11-05T02:36:53.773Z,21.78
2018-11-05T02:37:25.378Z,21.79
2018-11-05T02:37:56.985Z,21.76
2018-11-05T02:38:28.606Z,21.77
2018-11-05T02:39:00.232Z,21.77
2018-11-05T02:39:31.820Z,21.76
2018-11-05T02:40:03.430Z,21.76
2018-11-05T02:40:35.027Z,21.76
2018-11-05T02:41:06.616Z,21.74
2018-11-05T02:41:38.249Z,21.74
2018-11-05T02:42:09.858Z,21.73
2018-11-05T02:42:41.469Z,21.73
2018-11-05T02:43:13.070Z,21.74
2018-11-05T02:43:44.674Z,21.73
2018-11-05T02:44:16.274Z,21.73
2018-11-05T02:44:47.860Z,21.74
2018-11-05T02:45:19.453Z,21.74
2018-11-05T02:45:51.058Z,21.75
2018-11-05T02:46:22.670Z,21.73
2018-11-05T02:46:54.260Z,21.76
2018-11-05T02:47:25.868Z,21.76
2018-11-05T02:47:57.459Z,21.73
2018-11-05T02:48:29.051Z,21.76
2018-11-05T02:49:00.672Z,21.76
2018-11-05T02:49:32.250Z,21.76
2018-11-05T02:50:03.822Z,21.76
2018-11-05T02:50:35.408Z,21.76
2018-11-05T02:51:07.005Z,21.77
2018-11-05T02:51:38.604Z,21.78
2018-11-05T02:52:10.195Z,21.79
2018-11-05T02:52:41.795Z,21.80
2018-11-05T02:53:13.383Z,21.81
2018-11-05T02:53:44.980Z,21.81
2018-11-05T02:54:16.605Z,21.81
2018-11-05T02:54:48.200Z,21.82
2018-11-05T02:55:19.788Z,21.81
2018-11-05T02:55:51.381Z,21.81
2018-11-05T02:56:22.975Z,21.80
2018-11-05T02:56:54.568Z,21.80
2018-11-05T02:57:26.165Z,21.76
2018-11-05T02:57:57.756Z,21.78
2018-11-05T02:58:29.357Z,21.78
2018-11-05T02:59:00.966Z,21.78
2018-11-05T02:59:32.541Z,21.78
2018-11-05T03:00:04.146Z,21.78
2018-11-05T03:00:35.736Z,21.77
2018-11-05T03:01:07.324Z,21.65
2018-11-05T03:01:38.902Z,21.76
2018-11-05T03:02:10.487Z,21.77
2018-11-05T03:02:42.079Z,21.76
2018-11-05T03:03:13.731Z,21.77
2018-11-05T03:03:45.267Z,21.77
2018-11-05T03:04:16.941Z,21.77
2018-11-05T03:04:48.542Z,21.76
2018-11-05T03:05:20.144Z,21.76
2018-11-05T03:05:51.754Z,21.75
2018-11-05T03:06:23.339Z,21.75
2018-11-05T03:06:54.923Z,21.75
2018-11-05T03:07:26.509Z,21.75
2018-11-05T03:07:58.108Z,21.74
2018-11-05T03:08:29.695Z,21.74
2018-11-05T03:09:01.299Z,21.73
2018-11-05T03:09:32.907Z,21.72
2018-11-05T03:10:04.500Z,21.72
2018-11-05T03:10:36.103Z,21.72
2018-11-05T03:11:07.701Z,21.71
2018-11-05T03:11:39.299Z,21.72
2018-11-05T03:12:10.902Z,21.71
2018-11-05T03:12:42.511Z,21.70
2018-11-05T03:13:14.106Z,21.69
2018-11-05T03:13:45.703Z,21.69
2018-11-05T03:14:17.304Z,21.69
2018-11-05T03:14:48.937Z,21.68
2018-11-05T03:15:20.528Z,21.67
2018-11-05T03:15:52.110Z,21.67
2018-11-05T03:16:23.700Z,21.68
2018-11-05T03:16:55.307Z,21.68
2018-11-05T03:17:26.914Z,21.71
2018-11-05T03:17:58.504Z,21.69
2018-11-05T03:18:30.097Z,21.71
2018-11-05T03:19:01.696Z,21.72
2018-11-05T03:19:33.312Z,21.73
2018-11-05T03:20:04.900Z,21.75
2018-11-05T03:20:36.510Z,21.76
2018-11-05T03:21:08.117Z,21.77
2018-11-05T03:21:39.722Z,21.81
2018-11-05T03:22:11.326Z,21.83
2018-11-05T03:22:42.921Z,21.85
2018-11-05T03:23:14.508Z,21.86
2018-11-05T03:23:46.103Z,21.87
2018-11-05T03:24:17.696Z,21.88
2018-11-05T03:24:49.310Z,21.89
2018-11-05T03:25:20.896Z,21.88
2018-11-05T03:25:52.502Z,21.89
2018-11-05T03:26:24.096Z,21.89
2018-11-05T03:26:55.684Z,21.89
2018-11-05T03:27:27.290Z,21.89
2018-11-05T03:27:58.866Z,21.89
2018-11-05T03:28:30.477Z,21.77
2018-11-05T03:29:02.069Z,21.88
2018-11-05T03:29:33.668Z,21.88
2018-11-05T03:30:05.297Z,21.87
2018-11-05T03:30:36.883Z,21.87
2018-11-05T03:31:08.464Z,21.88
2018-11-05T03:31:40.070Z,21.89
2018-11-05T03:32:11.670Z,21.90
2018-11-05T03:32:43.276Z,21.91
2018-11-05T03:33:14.882Z,21.91
2018-11-05T03:33:46.476Z,21.90
2018-11-05T03:34:18.078Z,21.90
2018-11-05T03:34:49.697Z,21.90
2018-11-05T03:35:21.279Z,21.90
2018-11-05T03:35:52.896Z,21.90
2018-11-05T03:36:24.479Z,21.90
2018-11-05T03:36:56.053Z,21.89
2018-11-05T03:37:27.643Z,21.88
2018-11-05T03:37:59.247Z,21.89
2018-11-05T03:38:30.837Z,21.89
2018-11-05T03:39:02.442Z,21.90
2018-11-05T03:39:34.022Z,21.91
2018-11-05T03:40:05.650Z,21.91
2018-11-05T03:40:37.250Z,21.92
2018-11-05T03:41:08.826Z,22.01
2018-11-05T03:41:40.398Z,22.04
2018-11-05T03:42:11.988Z,22.04
2018-11-05T03:42:43.603Z,22.02
2018-11-05T03:43:15.200Z,22.00
2018-11-05T03:43:46.788Z,21.97
2018-11-05T03:44:18.497Z,21.93
2018-11-05T03:44:50.212Z,21.90
2018-11-05T03:45:21.816Z,21.86
2018-11-05T03:45:53.398Z,21.82
2018-11-05T03:46:24.996Z,21.79
2018-11-05T03:46:56.604Z,21.76
2018-11-05T03:47:28.182Z,21.73
2018-11-05T03:47:59.786Z,21.71
2018-11-05T03:48:31.390Z,21.69
2018-11-05T03:49:02.980Z,21.67
2018-11-05T03:49:34.587Z,21.63
2018-11-05T03:50:06.170Z,21.64
2018-11-05T03:50:37.784Z,21.63
2018-11-05T03:51:09.386Z,21.62
2018-11-05T03:51:40.985Z,21.62
2018-11-05T03:52:12.590Z,21.42
2018-11-05T03:52:44.177Z,21.15
2018-11-05T03:53:15.778Z,20.93
2018-11-05T03:53:47.405Z,20.70
2018-11-05T03:54:18.981Z,20.46
2018-11-05T03:54:50.604Z,20.28
2018-11-05T03:55:22.267Z,19.91
2018-11-05T03:55:53.891Z,19.99
2018-11-05T03:56:25.458Z,19.93
2018-11-05T03:56:57.065Z,19.90
2018-11-05T03:57:28.652Z,19.85
2018-11-05T03:58:00.240Z,19.85
2018-11-05T03:58:31.836Z,19.84
2018-11-05T03:59:03.443Z,19.80
2018-11-05T03:59:35.033Z,19.82
2018-11-05T04:00:06.626Z,19.73
2018-11-05T04:00:38.227Z,19.67
2018-11-05T04:01:09.838Z,19.71
2018-11-05T04:01:41.424Z,19.65
2018-11-05T04:02:13.026Z,19.65
2018-11-05T04:02:44.629Z,19.69
2018-11-05T04:03:16.274Z,19.67
2018-11-05T04:03:47.869Z,19.72
2018-11-05T04:04:19.472Z,19.72
2018-11-05T04:04:51.097Z,19.82
2018-11-05T04:05:22.702Z,19.95
2018-11-05T04:05:54.305Z,20.08
2018-11-05T04:06:25.896Z,20.21
2018-11-05T04:06:57.503Z,20.32
2018-11-05T04:07:29.114Z,20.42
2018-11-05T04:08:00.706Z,20.51
2018-11-05T04:08:32.290Z,20.58
2018-11-05T04:09:03.878Z,20.65
2018-11-05T04:09:35.481Z,20.71
2018-11-05T04:10:07.096Z,20.78
2018-11-05T04:10:38.677Z,20.83
2018-11-05T04:11:10.261Z,20.88
2018-11-05T04:11:41.877Z,20.91
2018-11-05T04:12:13.474Z,20.95
2018-11-05T04:12:45.074Z,20.98
2018-11-05T04:13:16.664Z,21.01
2018-11-05T04:13:48.271Z,21.04
2018-11-05T04:14:19.879Z,21.05
2018-11-05T04:14:51.486Z,21.08
2018-11-05T04:15:23.157Z,21.10
2018-11-05T04:15:54.776Z,21.11
2018-11-05T04:16:26.347Z,21.13
2018-11-05T04:16:57.953Z,21.14
2018-11-05T04:17:29.548Z,21.16
2018-11-05T04:18:01.158Z,21.17
2018-11-05T04:18:32.739Z,21.18
2018-11-05T04:19:04.328Z,21.20
2018-11-05T04:19:35.929Z,21.22
2018-11-05T04:20:07.542Z,21.22
2018-11-05T04:20:39.150Z,21.24
2018-11-05T04:21:10.726Z,21.25
2018-11-05T04:21:42.315Z,21.26
2018-11-05T04:22:13.910Z,21.27
2018-11-05T04:22:45.503Z,21.28
2018-11-05T04:23:17.086Z,21.28
2018-11-05T04:23:48.686Z,21.29
2018-11-05T04:24:20.272Z,21.30
2018-11-05T04:24:51.875Z,21.30
2018-11-05T04:25:23.478Z,21.32
2018-11-05T04:25:55.064Z,21.34
2018-11-05T04:26:26.650Z,21.34
2018-11-05T04:26:58.254Z,21.14
2018-11-05T04:27:29.847Z,21.36
2018-11-05T04:28:01.641Z,21.37
2018-11-05T04:28:33.074Z,21.37
2018-11-05T04:29:04.663Z,21.36
2018-11-05T04:29:36.267Z,21.38
2018-11-05T04:30:07.865Z,21.38
2018-11-05T04:30:39.484Z,21.39
2018-11-05T04:31:11.069Z,21.39
2018-11-05T04:31:42.669Z,21.40
2018-11-05T04:32:14.256Z,21.41
2018-11-05T04:32:45.848Z,21.41
2018-11-05T04:33:17.450Z,21.41
2018-11-05T04:33:49.055Z,19.38
2018-11-05T04:34:20.659Z,21.43
2018-11-05T04:34:52.256Z,21.43
2018-11-05T04:35:23.877Z,21.44
2018-11-05T04:35:55.489Z,21.44
2018-11-05T04:36:27.067Z,21.44
2018-11-05T04:36:58.666Z,21.44
2018-11-05T04:37:30.278Z,21.43
2018-11-05T04:38:01.883Z,21.44
2018-11-05T04:38:33.487Z,21.42
2018-11-05T04:39:05.086Z,21.45
2018-11-05T04:39:36.680Z,21.45
2018-11-05T04:40:08.285Z,21.45
2018-11-05T04:40:39.898Z,21.46
2018-11-05T04:41:11.485Z,21.45
2018-11-05T04:41:43.075Z,21.45
2018-11-05T04:42:14.682Z,21.45
2018-11-05T04:42:46.274Z,21.45
2018-11-05T04:43:17.882Z,21.44
2018-11-05T04:43:49.476Z,21.43
2018-11-05T04:44:21.054Z,21.44
2018-11-05T04:44:52.639Z,21.44
2018-11-05T04:45:24.228Z,21.44
2018-11-05T04:45:55.856Z,21.45
2018-11-05T04:46:27.448Z,21.44
2018-11-05T04:46:59.042Z,21.44
2018-11-05T04:47:30.632Z,21.44
2018-11-05T04:48:02.231Z,21.43
2018-11-05T04:48:33.819Z,21.44
2018-11-05T04:49:05.416Z,21.43
2018-11-05T04:49:37.008Z,21.43
2018-11-05T04:50:08.582Z,21.43
2018-11-05T04:50:40.186Z,21.43
2018-11-05T04:51:11.816Z,21.43
2018-11-05T04:51:43.408Z,21.43
2018-11-05T04:52:15.010Z,21.42
2018-11-05T04:52:46.626Z,21.42
2018-11-05T04:53:18.228Z,21.41
2018-11-05T04:53:49.829Z,21.41
2018-11-05T04:54:21.410Z,21.40
2018-11-05T04:54:53.006Z,21.40
2018-11-05T04:55:24.589Z,21.39
2018-11-05T04:55:56.217Z,21.39
2018-11-05T04:56:27.818Z,21.39
2018-11-05T04:56:59.422Z,21.38
2018-11-05T04:57:31.025Z,21.37
2018-11-05T04:58:02.615Z,21.35
2018-11-05T04:58:34.203Z,21.37
2018-11-05T04:59:05.787Z,21.36
2018-11-05T04:59:37.383Z,21.35
2018-11-05T05:00:08.979Z,21.35
2018-11-05T05:00:40.568Z,21.34
2018-11-05T05:01:12.194Z,21.34
2018-11-05T05:01:43.780Z,21.33
2018-11-05T05:02:15.368Z,21.33
2018-11-05T05:02:46.955Z,21.33
2018-11-05T05:03:18.582Z,21.33
2018-11-05T05:03:50.161Z,21.32
2018-11-05T05:04:21.766Z,21.31
2018-11-05T05:04:53.374Z,21.31
2018-11-05T05:05:24.986Z,21.29
2018-11-05T05:05:56.610Z,21.28
2018-11-05T05:06:28.200Z,21.28
2018-11-05T05:06:59.799Z,21.28
2018-11-05T05:07:31.397Z,21.27
2018-11-05T05:08:02.998Z,21.23
2018-11-05T05:08:34.583Z,21.26
2018-11-05T05:09:06.175Z,21.25
2018-11-05T05:09:37.763Z,21.24
2018-11-05T05:10:09.364Z,21.21
2018-11-05T05:10:40.942Z,21.21
2018-11-05T05:11:12.556Z,21.20
2018-11-05T05:11:44.133Z,21.22
2018-11-05T05:12:15.715Z,21.22
2018-11-05T05:12:47.304Z,21.21
2018-11-05T05:13:18.901Z,21.20
2018-11-05T05:13:50.496Z,21.20
2018-11-05T05:14:22.084Z,21.18
2018-11-05T05:14:53.685Z,21.18
2018-11-05T05:15:25.294Z,21.17
2018-11-05T05:15:56.866Z,21.17
2018-11-05T05:16:28.479Z,21.16
2018-11-05T05:17:00.090Z,21.15
2018-11-05T05:17:31.688Z,21.15
2018-11-05T05:18:03.276Z,21.15
2018-11-05T05:18:34.882Z,21.14
2018-11-05T05:19:06.462Z,21.13
2018-11-05T05:19:38.050Z,21.13
2018-11-05T05:20:09.640Z,21.12
2018-11-05T05:20:41.216Z,21.12
2018-11-05T05:21:12.818Z,21.11
2018-11-05T05:21:44.403Z,21.10
2018-11-05T05:22:16.018Z,21.10
2018-11-05T05:22:47.799Z,21.01
2018-11-05T05:23:19.249Z,21.09
2018-11-05T05:23:50.845Z,21.08
2018-11-05T05:24:22.434Z,21.08
2018-11-05T05:24:54.020Z,21.07
2018-11-05T05:25:25.625Z,21.07
2018-11-05T05:25:57.212Z,21.07
2018-11-05T05:26:28.841Z,21.07
2018-11-05T05:27:00.437Z,21.06
2018-11-05T05:27:32.037Z,21.04
2018-11-05T05:28:03.614Z,21.05
2018-11-05T05:28:35.217Z,21.05
2018-11-05T05:29:06.799Z,21.05
2018-11-05T05:29:38.388Z,21.03
2018-11-05T05:30:09.984Z,21.03
2018-11-05T05:30:41.576Z,21.03
2018-11-05T05:31:13.173Z,21.03
2018-11-05T05:31:44.771Z,21.02
2018-11-05T05:32:16.374Z,21.03
2018-11-05T05:32:48.013Z,21.02
2018-11-05T05:33:19.632Z,21.02
2018-11-05T05:33:51.229Z,21.02
2018-11-05T05:34:22.836Z,21.00
2018-11-05T05:34:54.435Z,21.02
2018-11-05T05:35:26.029Z,21.03
2018-11-05T05:35:57.627Z,21.02
2018-11-05T05:36:29.203Z,21.02
2018-11-05T05:37:00.806Z,20.81
2018-11-05T05:37:32.389Z,21.01
2018-11-05T05:38:03.996Z,21.01
2018-11-05T05:38:35.593Z,21.02
2018-11-05T05:39:07.183Z,21.03
2018-11-05T05:39:38.786Z,21.01
2018-11-05T05:40:10.389Z,21.04
2018-11-05T05:40:42.024Z,21.04
2018-11-05T05:41:13.653Z,21.05
2018-11-05T05:41:45.262Z,21.06
2018-11-05T05:42:16.866Z,21.06
2018-11-05T05:42:48.460Z,21.07
2018-11-05T05:43:20.066Z,21.06
2018-11-05T05:43:51.659Z,21.07
2018-11-05T05:44:23.248Z,21.06
2018-11-05T05:44:54.849Z,21.07
2018-11-05T05:45:26.430Z,21.07
2018-11-05T05:45:58.030Z,21.05
2018-11-05T05:46:29.619Z,21.07
2018-11-05T05:47:01.244Z,21.07
2018-11-05T05:47:32.844Z,21.07
2018-11-05T05:48:04.446Z,21.08
2018-11-05T05:48:36.036Z,21.08
2018-11-05T05:49:07.628Z,21.08
2018-11-05T05:49:39.215Z,21.09
2018-11-05T05:50:10.912Z,21.09
2018-11-05T05:50:42.425Z,21.10
2018-11-05T05:51:14.011Z,21.09
2018-11-05T05:51:45.633Z,21.10
2018-11-05T05:52:17.228Z,21.10
2018-11-05T05:52:48.830Z,21.11
2018-11-05T05:53:20.449Z,21.11
2018-11-05T05:53:52.039Z,21.11
2018-11-05T05:54:23.641Z,21.13
2018-11-05T05:54:55.227Z,21.13
2018-11-05T05:55:26.821Z,21.13
2018-11-05T05:55:58.412Z,21.14
2018-11-05T05:56:30.005Z,21.13
2018-11-05T05:57:01.629Z,21.15
2018-11-05T05:57:33.229Z,21.15
2018-11-05T05:58:04.821Z,21.15
2018-11-05T05:58:36.414Z,21.15
2018-11-05T05:59:07.999Z,21.17
2018-11-05T05:59:39.592Z,21.17
2018-11-05T06:00:11.202Z,21.17
2018-11-05T06:00:42.805Z,21.18
2018-11-05T06:01:14.406Z,21.18
2018-11-05T06:01:46.020Z,21.19
2018-11-05T06:02:17.615Z,21.19
2018-11-05T06:02:49.214Z,21.19
2018-11-05T06:03:20.798Z,21.19
2018-11-05T06:03:52.380Z,21.19
2018-11-05T06:04:23.981Z,21.18
2018-11-05T06:04:55.568Z,21.19
2018-11-05T06:05:27.155Z,21.19
2018-11-05T06:05:58.795Z,21.18
2018-11-05T06:06:30.436Z,21.19
2018-11-05T06:07:02.008Z,21.19
2018-11-05T06:07:33.596Z,21.17
2018-11-05T06:08:05.189Z,21.20
2018-11-05T06:08:36.779Z,21.20
2018-11-05T06:09:08.386Z,21.20
2018-11-05T06:09:39.991Z,21.20
2018-11-05T06:10:11.590Z,21.21
2018-11-05T06:10:43.181Z,21.21
2018-11-05T06:11:14.757Z,21.20
2018-11-05T06:11:46.377Z,21.20
2018-11-05T06:12:17.964Z,21.20
2018-11-05T06:12:49.555Z,21.20
2018-11-05T06:13:21.153Z,21.20
2018-11-05T06:13:52.745Z,21.19
2018-11-05T06:14:24.350Z,21.19
2018-11-05T06:14:55.971Z,21.20
2018-11-05T06:15:27.577Z,21.20
2018-11-05T06:15:59.249Z,21.20
2018-11-05T06:16:30.780Z,21.20
2018-11-05T06:17:02.401Z,21.20
2018-11-05T06:17:33.992Z,21.20
2018-11-05T06:18:05.570Z,21.19
2018-11-05T06:18:37.173Z,21.19
2018-11-05T06:19:08.770Z,21.20
2018-11-05T06:19:40.359Z,21.19
2018-11-05T06:20:11.934Z,21.19
2018-11-05T06:20:43.532Z,21.19
2018-11-05T06:21:15.120Z,21.19
2018-11-05T06:21:46.758Z,21.19
2018-11-05T06:22:18.390Z,21.18
2018-11-05T06:22:49.970Z,21.18
2018-11-05T06:23:21.565Z,21.19
2018-11-05T06:23:53.174Z,21.18
2018-11-05T06:24:24.764Z,21.19
2018-11-05T06:24:56.360Z,21.19
2018-11-05T06:25:27.964Z,21.19
2018-11-05T06:25:59.556Z,21.18
2018-11-05T06:26:31.177Z,21.18
2018-11-05T06:27:02.814Z,21.18
2018-11-05T06:27:34.429Z,21.18
2018-11-05T06:28:06.021Z,21.16
2018-11-05T06:28:37.691Z,21.17
2018-11-05T06:29:09.219Z,21.17
2018-11-05T06:29:40.808Z,21.16
2018-11-05T06:30:12.406Z,21.17
2018-11-05T06:30:44.923Z,21.16
2018-11-05T06:31:16.512Z,21.16
2018-11-05T06:31:48.129Z,21.16
2018-11-05T06:32:19.758Z,21.16
2018-11-05T06:32:51.351Z,21.15
2018-11-05T06:33:22.940Z,21.15
2018-11-05T06:33:54.536Z,21.15
2018-11-05T06:34:26.125Z,21.14
2018-11-05T06:34:57.712Z,21.14
2018-11-05T06:35:29.344Z,21.14
2018-11-05T06:36:00.943Z,21.12
2018-11-05T06:36:32.541Z,21.13
2018-11-05T06:37:04.169Z,21.13
2018-11-05T06:37:35.776Z,21.12
2018-11-05T06:38:07.369Z,21.12
2018-11-05T06:38:38.970Z,21.11
2018-11-05T06:39:10.550Z,21.10
2018-11-05T06:39:42.127Z,21.10
2018-11-05T06:40:13.716Z,21.10
2018-11-05T06:40:45.318Z,21.10
2018-11-05T06:41:16.987Z,21.10
2018-11-05T06:41:48.573Z,21.10
2018-11-05T06:42:20.192Z,21.10
2018-11-05T06:42:51.813Z,21.10
2018-11-05T06:43:23.404Z,21.09
2018-11-05T06:43:55.007Z,21.08
2018-11-05T06:44:27.623Z,21.08
2018-11-05T06:44:59.263Z,21.06
2018-11-05T06:45:30.974Z,21.09
2018-11-05T06:46:02.477Z,21.08
2018-11-05T06:46:34.067Z,21.07
2018-11-05T06:47:05.676Z,21.08